Predicción AEMET 48 horas València

previsión por horas elaborada el 05-05 a las 09:30 para València
*La siguiente información presentada es de elaboración propia a partir de los datos meteorológicos de la AEMET
Fecha Viento (km/h) Dir. Estado cielo Racha (km/h) Temp. (ºC) Hum. (%) Sens.Térm. (ºC) Nieve (mm) Prec.(mm)
05May 10:00 8 O Despejado 17 19 54 19 0 0
05May 11:00 3 O Despejado 17 20 50 20 0 0
05May 12:00 3 O Despejado 32 21 39 21 0 0
05May 13:00 17 E Despejado 32 22 51 22 0 0
05May 14:00 12 E Despejado 28 23 47 23 0 0
05May 15:00 13 SE Despejado 33 23 48 23 0 0
05May 16:00 17 SE Despejado 35 23 51 23 0 0
05May 17:00 14 SE Poco nuboso 30 24 46 24 0 0
05May 18:00 15 SE Despejado 29 22 51 22 0 0
05May 19:00 13 E Despejado 37 20 65 20 0 0
05May 20:00 20 NE Poco nuboso 45 18 80 18 0 0
05May 21:00 27 NE Cubierto 48 18 78 18 0 0
05May 22:00 27 NE Cubierto 46 18 69 18 0 0
05May 23:00 15 NE Muy nuboso 26 17 72 17 0 0
06May 00:00 10 NE Poco nuboso 17 17 67 17 0 0
06May 01:00 4 NE Cubierto 7 16 68 16 0 0
06May 02:00 2 O Despejado 10 16 69 16 0 0
06May 03:00 6 O Despejado 9 15 73 15 0 0
06May 04:00 4 O Despejado 7 14 77 14 0 0
06May 05:00 5 O Despejado 11 14 80 14 0 0
06May 06:00 8 O Despejado 12 13 83 13 0 0
06May 07:00 8 O Despejado 16 13 88 13 0 0
06May 08:00 9 O Intervalos nubosos 19 13 82 13 0 0
06May 09:00 10 O Intervalos nubosos 19 15 68 15 0 0
06May 10:00 7 SO Intervalos nubosos 21 17 60 17 0 0
06May 11:00 9 S Intervalos nubosos 32 19 53 19 0 0
06May 12:00 16 SE Intervalos nubosos 37 19 54 19 0 0
06May 13:00 19 SE Intervalos nubosos 37 20 55 20 0 0
06May 14:00 18 SE Poco nuboso 38 21 49 21 0 0
06May 15:00 18 SE Despejado 39 20 53 20 0 0
06May 16:00 20 SE Poco nuboso 38 20 51 20 0 0
06May 17:00 18 SE Nubes altas 34 20 52 20 0 0
06May 18:00 16 E Nubes altas 31 19 56 19 0 0
06May 19:00 13 E Nubes altas 25 19 58 19 0 0
06May 20:00 11 E Nubes altas 20 19 61 19 0 0
06May 21:00 9 E Nubes altas 16 18 61 18 0 0
06May 22:00 8 E Nubes altas 14 18 60 18 0 0
06May 23:00 8 NE Nubes altas 13 17 66 17 0 0
07May 00:00 7 NE Nubes altas 11 17 70 17 0 0
07May 01:00 7 NE Nubes altas 10 16 72 16 0 0
07May 02:00 6 N Nubes altas 12 16 70 16 0 0
07May 03:00 8 NO Nubes altas 13 15 65 15 0 0
07May 04:00 8 NO Nubes altas 12 15 66 15 0 0
07May 05:00 8 NO Poco nuboso 11 14 66 14 0 0
07May 06:00 8 O Cubierto 11 14 65 14 0 0
07May 07:00 5 O Cubierto 10 13 66 13 0 0